Weather History for KFTK - May, 2013

Change the Weather History Date:

Saturday, May 11, 2013

  Actual Average Record
Temperature  
Mean Temperature 58 °F -  
Max Temperature 63 °F 73 °F 88 °F (2011)
Min Temperature 52 °F 52 °F 39 °F (1997)
Degree Days  
Heating Degree Days 7    
Growing Degree Days 8 (Base 50)    
Moisture  
Dew Point 54 °F    
Average Humidity 88    
Maximum Humidity 100    
Minimum Humidity 54    
Precipitation  
Precipitation 0.05 in - - ()
Sea Level Pressure  
Sea Level Pressure 29.93 in    
Wind  
Wind Speed 6 mph (WNW)    
Max Wind Speed 14 mph    
Max Gust Speed 22 mph    
Visibility 9 miles    
Events Rain    
Averages and records for this station are not official NWS values.
T = Trace of Precipitation, MM = Missing Value Source: NWS Daily Summary

Daily Weather History Graph

Daily Weather History Graph

Search for Another Location

Airport or City:

Trip Planner

Search our weather history database for the weather conditions in past years. The results will help you decide how hot, cold, wet, or windy it might be!

Date:

Astronomy

May. 11, 2013 Rise Set
Actual Time 6:37 AM EDT 8:43 PM EDT
Civil Twilight 6:07 AM EDT 9:13 PM EDT
Nautical Twilight 5:32 AM EDT 9:48 PM EDT
Astronomical Twilight 4:53 AM EDT 10:27 PM EDT
Moon 7:44 AM EDT (5/11) 10:23 PM EDT (5/11)
Length of Visible Light 15h 05m
Length of Day
14h 06m
Waxing Crescent, 3% of the Moon is Illuminated
May 11
Waxing Crescent
May 18
First Quarter
May 25
Full
May 31
Last Quarter
Jun 8
New

Hourly Weather History & Observations

Time (EDT) Temp. Dew Point Humidity Pressure Visibility Wind Dir Wind Speed Gust Speed Precip Events Conditions
12:56 AM 60.8 °F 60.8 °F 100% 29.89 in 10.0 mi North 3.5 mph - N/A   Partly Cloudy
12:58 AM 60.8 °F 60.4 °F 99% 29.89 in 10.0 mi Variable 3.5 mph - 0.05 in   Partly Cloudy
1:00 AM 60.8 °F 60.8 °F 100% 29.90 in 10.0 mi WNW 4.6 mph - N/A Rain Light Rain
1:15 AM 60.8 °F 60.8 °F 100% 29.91 in 10.0 mi West 6.9 mph - N/A   Mostly Cloudy
1:25 AM 60.8 °F 60.8 °F 100% 29.90 in 10.0 mi West 3.5 mph - N/A   Mostly Cloudy
1:36 AM 60.8 °F 60.8 °F 100% 29.91 in 10.0 mi SW 4.6 mph - N/A Rain Light Rain
1:39 AM 60.8 °F 60.8 °F 100% 29.90 in 10.0 mi WSW 2.3 mph - N/A   Overcast
1:49 AM 60.8 °F 60.8 °F 100% 29.90 in 10.0 mi West 3.5 mph - N/A   Overcast
1:51 AM 60.8 °F 60.8 °F 100% 29.91 in 10.0 mi West 3.5 mph - N/A Rain Light Rain
1:58 AM 61.0 °F 61.0 °F 100% 29.91 in 10.0 mi WNW 4.6 mph - 0.00 in Rain Light Rain
2:05 AM 60.8 °F 60.8 °F 100% 29.91 in 10.0 mi West 3.5 mph - N/A   Overcast
2:07 AM 60.8 °F 60.8 °F 100% 29.91 in 10.0 mi West 3.5 mph - N/A Rain Light Rain
2:19 AM 60.8 °F 60.8 °F 100% 29.91 in 10.0 mi West 3.5 mph - N/A   Overcast
2:39 AM 60.8 °F 60.8 °F 100% 29.91 in 10.0 mi West 5.8 mph - N/A   Overcast
2:58 AM 60.3 °F 59.7 °F 98% 29.90 in 10.0 mi WNW 8.1 mph - 0.00 in   Overcast
3:58 AM 58.8 °F 57.4 °F 95% 29.90 in 10.0 mi WNW 4.6 mph - N/A   Overcast
4:13 AM 59.0 °F 57.2 °F 94% 29.90 in 9.0 mi WNW 4.6 mph - N/A   Overcast
4:18 AM 59.0 °F 57.2 °F 94% 29.90 in 8.0 mi WNW 8.1 mph - N/A   Overcast
4:33 AM 59.0 °F 57.2 °F 94% 29.91 in 10.0 mi WNW 6.9 mph - N/A   Overcast
4:43 AM 59.0 °F 57.2 °F 94% 29.91 in 10.0 mi WNW 8.1 mph - N/A   Overcast
4:58 AM 58.1 °F 56.3 °F 94% 29.91 in 10.0 mi NW 5.8 mph - N/A   Overcast
5:08 AM 57.2 °F 55.4 °F 94% 29.91 in 10.0 mi WNW 5.8 mph - N/A   Overcast
5:28 AM 57.2 °F 55.4 °F 94% 29.90 in 9.0 mi WNW 6.9 mph - N/A   Overcast
5:48 AM 57.2 °F 55.4 °F 94% 29.90 in 7.0 mi NW 6.9 mph - N/A   Overcast
5:58 AM 56.7 °F 55.2 °F 95% 29.90 in 5.0 mi NW 6.9 mph - N/A   Overcast
6:01 AM 57.2 °F 55.4 °F 94% 29.90 in 5.0 mi NW 11.5 mph - N/A   Light Drizzle
6:16 AM 55.4 °F 53.6 °F 94% 29.91 in 6.0 mi NW 10.4 mph - N/A   Light Drizzle
6:21 AM 55.4 °F 53.6 °F 94% 29.92 in 6.0 mi NW 8.1 mph - N/A   Overcast
6:26 AM 55.4 °F 53.6 °F 94% 29.92 in 7.0 mi WNW 8.1 mph - N/A   Overcast
6:36 AM 55.4 °F 53.6 °F 94% 29.92 in 9.0 mi WNW 8.1 mph - N/A   Overcast
6:58 AM 55.4 °F 53.6 °F 94% 29.92 in 9.0 mi NW 6.9 mph - 0.00 in   Overcast
7:55 AM 54.7 °F 53.1 °F 94% 29.93 in 4.0 mi WNW 6.9 mph - 0.00 in   Light Drizzle
8:10 AM 55.4 °F 53.6 °F 94% 29.93 in 5.0 mi WNW 5.8 mph - N/A   Overcast
8:41 AM 53.6 °F 53.6 °F 100% 29.94 in 6.0 mi WNW 5.8 mph - N/A   Overcast
8:55 AM 54.3 °F 53.1 °F 95% 29.95 in 6.0 mi NW 5.8 mph - 0.00 in   Overcast
9:24 AM 53.6 °F 51.8 °F 94% 29.95 in 7.0 mi West 6.9 mph - N/A   Overcast
9:55 AM 54.9 °F 50.9 °F 86% 29.95 in 8.0 mi WNW 5.8 mph - N/A   Overcast
10:55 AM 54.7 °F 50.5 °F 86% 29.95 in 10.0 mi WNW 5.8 mph - N/A   Overcast
11:11 AM 55.4 °F 50.0 °F 82% 29.96 in 9.0 mi West 5.8 mph - N/A   Light Drizzle
11:31 AM 53.6 °F 50.0 °F 88% 29.96 in 10.0 mi West 8.1 mph - N/A   Overcast
11:55 AM 54.1 °F 49.3 °F 84% 29.97 in 10.0 mi WSW 6.9 mph - N/A   Overcast
12:55 PM 55.2 °F 49.3 °F 80% 29.97 in 10.0 mi WNW 10.4 mph - N/A   Overcast
1:58 PM 55.9 °F 49.3 °F 78% 29.98 in 10.0 mi West 8.1 mph - N/A   Overcast
2:08 PM 57.2 °F 50.0 °F 77% 29.97 in 10.0 mi WSW 11.5 mph - N/A   Overcast
2:18 PM 55.4 °F 50.0 °F 82% 29.97 in 10.0 mi WSW 10.4 mph - N/A   Overcast
2:58 PM 57.2 °F 49.8 °F 76% 29.98 in 10.0 mi West 8.1 mph 17.3 mph N/A   Overcast
3:13 PM 59.0 °F 51.8 °F 77% 29.96 in 10.0 mi West 8.1 mph - N/A   Overcast
3:58 PM 59.0 °F 50.4 °F 73% 29.96 in 10.0 mi West 10.4 mph - N/A   Overcast
4:53 PM 60.8 °F 50.0 °F 68% 29.96 in 10.0 mi West 10.4 mph - N/A   Scattered Clouds
4:58 PM 61.5 °F 50.5 °F 67% 29.96 in 10.0 mi WNW 8.1 mph - N/A   Mostly Cloudy
5:08 PM 62.6 °F 50.0 °F 63% 29.95 in 10.0 mi West 9.2 mph - N/A   Scattered Clouds
5:58 PM 63.0 °F 50.9 °F 65% 29.96 in 10.0 mi WSW 10.4 mph - N/A   Mostly Cloudy
6:58 PM 63.1 °F 50.9 °F 64% 29.94 in 10.0 mi WSW 8.1 mph - N/A   Clear
7:58 PM 61.2 °F 51.4 °F 70% 29.94 in 10.0 mi SW 5.8 mph - N/A   Overcast
8:58 PM 59.5 °F 52.2 °F 77% 29.95 in 10.0 mi WSW 5.8 mph - N/A   Overcast
9:56 PM 59.0 °F 51.8 °F 77% 29.98 in 10.0 mi NW 10.4 mph - N/A   Mostly Cloudy
9:58 PM 59.4 °F 51.1 °F 74% 29.99 in 10.0 mi WNW 13.8 mph 20.7 mph N/A   Overcast
10:03 PM 59.0 °F 48.2 °F 67% 29.99 in 10.0 mi WNW 12.7 mph 21.9 mph N/A   Mostly Cloudy
10:58 PM 55.6 °F 39.6 °F 55% 30.03 in 10.0 mi NW 10.4 mph - N/A   Clear
11:58 PM 52.9 °F 36.5 °F 54% 30.05 in 10.0 mi NW 9.2 mph - N/A   Clear